Time;durP1;ratioP1;P1;durP2;ratioP2;P2;SDS_P1;SDS_P2;PMS_P1;PMS_P2;Temp;Humidity;BMP_temperature;BMP_pressure;BME280_temperature;BME280_humidity;BME280_pressure;Samples;Min_cycle;Max_cycle;Signal;HPM_P1;HPM_P2
2022/04/19 00:01:51;;;;;;;3.78;1.55;;;7.00;99.90;;;;;;6218832;23;20107;-85
2022/04/19 00:04:18;;;;;;;2.63;1.40;;;7.90;99.90;;;;;;6219346;23;20035;-85
2022/04/19 00:06:45;;;;;;;3.35;1.38;;;7.80;99.90;;;;;;6219031;23;20020;-84
2022/04/19 00:09:11;;;;;;;3.53;1.65;;;7.90;99.90;;;;;;6246116;23;20020;-85
2022/04/19 00:11:36;;;;;;;2.65;1.73;;;7.00;99.90;;;;;;6245823;23;20451;-85
2022/04/19 00:14:02;;;;;;;3.70;1.50;;;7.40;99.90;;;;;;6245821;23;20016;-84
2022/04/19 00:16:28;;;;;;;3.72;1.50;;;7.70;99.90;;;;;;6218655;23;20055;-85
2022/04/19 00:18:54;;;;;;;3.05;1.45;;;7.70;99.90;;;;;;6246167;23;20346;-85
2022/04/19 00:21:20;;;;;;;3.58;1.90;;;7.00;99.90;;;;;;6219175;23;20020;-84
2022/04/19 00:23:46;;;;;;;3.03;1.40;;;7.50;99.90;;;;;;6219585;23;20090;-84
2022/04/19 00:26:12;;;;;;;4.78;1.92;;;7.00;99.90;;;;;;6261796;22;20019;-84
2022/04/19 00:28:38;;;;;;;3.95;1.90;;;7.00;99.90;;;;;;6276587;22;20101;-85
2022/04/19 00:31:04;;;;;;;3.63;1.63;;;5.40;99.90;;;;;;6276538;22;20063;-85
2022/04/19 00:33:30;;;;;;;3.55;1.88;;;7.90;99.90;;;;;;6248623;22;20399;-85
2022/04/19 00:35:56;;;;;;;5.32;2.25;;;7.20;99.90;;;;;;6276424;22;20350;-84
2022/04/19 00:38:22;;;;;;;4.47;1.52;;;7.70;99.90;;;;;;6276568;22;20016;-85
2022/04/19 00:40:48;;;;;;;3.78;1.38;;;6.80;99.90;;;;;;6276495;22;20019;-84
2022/04/19 00:43:17;;;;;;;3.03;1.45;;;6.80;99.90;;;;;;6248889;22;20078;-84
2022/04/19 00:45:42;;;;;;;4.28;2.03;;;6.80;99.90;;;;;;6276579;22;20019;-85
2022/04/19 00:48:08;;;;;;;2.60;1.60;;;7.60;99.90;;;;;;6248980;22;20421;-85
2022/04/19 00:50:34;;;;;;;3.85;1.55;;;6.80;99.90;;;;;;6249026;22;20062;-85
2022/04/19 00:53:01;;;;;;;3.08;1.27;;;7.40;99.90;;;;;;6248990;22;20027;-85
2022/04/19 00:55:27;;;;;;;2.88;1.67;;;7.60;99.90;;;;;;6276296;22;20016;-85
2022/04/19 00:57:53;;;;;;;3.97;2.08;;;6.70;99.90;;;;;;6248937;22;20023;-85
2022/04/19 01:00:20;;;;;;;3.90;1.70;;;7.20;99.90;;;;;;6248898;22;20024;-85
2022/04/19 01:02:46;;;;;;;3.55;1.67;;;6.60;99.90;;;;;;6249162;22;20066;-85
2022/04/19 01:05:11;;;;;;;3.42;1.92;;;6.60;99.90;;;;;;6276165;22;20331;-85
2022/04/19 01:07:39;;;;;;;3.45;2.20;;;7.40;99.90;;;;;;6275697;22;20028;-85
2022/04/19 01:10:05;;;;;;;7.60;1.80;;;6.50;99.90;;;;;;6248399;22;20058;-85
2022/04/19 01:15:15;;;;;;;3.53;1.70;;;6.50;99.90;;;;;;6276235;22;20024;-85
2022/04/19 01:17:42;;;;;;;4.32;2.25;;;7.20;99.90;;;;;;6275875;22;20349;-85
2022/04/19 01:20:09;;;;;;;3.88;1.58;;;6.70;99.90;;;;;;6275643;22;20481;-85
2022/04/19 01:22:42;;;;;;;4.93;2.33;;;6.40;99.90;;;;;;6275964;22;20016;-85
2022/04/19 01:25:10;;;;;;;4.20;2.20;;;6.40;99.90;;;;;;6275986;22;20165;-84
2022/04/19 01:27:36;;;;;;;2.75;1.83;;;6.80;99.90;;;;;;6248943;22;20027;-84
2022/04/19 01:30:05;;;;;;;4.20;1.83;;;6.30;99.90;;;;;;6275751;22;20020;-84
2022/04/19 01:32:32;;;;;;;4.45;2.13;;;6.30;99.90;;;;;;6223475;22;20024;-85
2022/04/19 01:35:12;;;;;;;4.40;2.22;;;6.80;99.90;;;;;;6275711;22;20020;-84
2022/04/19 01:37:40;;;;;;;4.22;2.22;;;6.20;99.90;;;;;;6275806;22;20346;-85
2022/04/19 01:40:19;;;;;;;3.90;2.10;;;6.20;99.90;;;;;;6276082;22;20027;-86
2022/04/19 01:42:53;;;;;;;3.78;1.90;;;6.20;99.90;;;;;;6276075;22;20015;-85
2022/04/19 01:45:25;;;;;;;4.40;1.92;;;6.10;99.90;;;;;;6249492;22;20362;-85
2022/04/19 01:47:53;;;;;;;4.68;1.90;;;6.10;99.90;;;;;;6276332;22;20020;-84
2022/04/19 01:50:20;;;;;;;4.78;2.10;;;6.10;99.90;;;;;;6248784;22;20077;-85
2022/04/19 01:52:47;;;;;;;4.43;1.88;;;6.10;99.90;;;;;;6275977;22;20027;-85
2022/04/19 01:55:14;;;;;;;3.53;1.98;;;6.10;99.90;;;;;;6248534;22;20572;-83
2022/04/19 01:57:41;;;;;;;5.32;2.20;;;6.50;99.90;;;;;;6223327;22;20016;-84
2022/04/19 02:00:07;;;;;;;5.32;2.03;;;6.00;99.90;;;;;;6223607;22;20055;-85
2022/04/19 02:02:33;;;;;;;4.25;2.17;;;6.00;99.90;;;;;;6248264;22;20028;-85
2022/04/19 02:04:59;;;;;;;5.25;2.53;;;6.00;99.90;;;;;;6276447;22;20015;-86
2022/04/19 02:07:24;;;;;;;5.20;2.30;;;6.30;99.90;;;;;;6278078;22;20342;-85
2022/04/19 02:09:50;;;;;;;3.88;1.80;;;7.00;99.90;;;;;;6277904;22;20446;-84
2022/04/19 02:12:16;;;;;;;2.63;1.42;;;7.10;99.90;;;;;;6251063;22;20015;-84
2022/04/19 02:14:42;;;;;;;4.47;2.33;;;6.30;99.90;;;;;;6277848;22;20078;-85
2022/04/19 02:17:11;;;;;;;4.50;2.15;;;6.00;99.90;;;;;;6278005;22;20011;-85
2022/04/19 02:19:37;;;;;;;5.15;2.42;;;5.90;99.90;;;;;;6277667;22;20018;-85
2022/04/19 02:22:06;;;;;;;4.63;1.90;;;6.80;99.90;;;;;;6279601;22;20094;-85
2022/04/19 02:24:34;;;;;;;5.75;2.28;;;6.30;99.90;;;;;;6251166;22;20023;-85
2022/04/19 02:27:00;;;;;;;5.57;3.22;;;6.30;99.90;;;;;;6277444;22;20087;-85
2022/04/19 02:29:27;;;;;;;5.93;2.75;;;5.80;99.90;;;;;;6251100;22;20024;-83
2022/04/19 02:31:53;;;;;;;5.18;2.35;;;6.00;99.90;;;;;;6250282;22;20016;-85
2022/04/19 02:34:19;;;;;;;5.55;2.22;;;6.10;99.90;;;;;;6277925;22;20069;-85
2022/04/19 02:36:45;;;;;;;4.80;2.33;;;6.40;99.90;;;;;;6278467;22;20334;-85
2022/04/19 02:39:11;;;;;;;5.85;2.55;;;5.50;99.90;;;;;;6277723;22;20085;-85
2022/04/19 02:41:37;;;;;;;4.50;2.25;;;6.40;99.90;;;;;;6277563;22;20051;-85
2022/04/19 02:44:04;;;;;;;6.13;3.03;;;6.50;99.90;;;;;;6278433;22;20031;-84
2022/04/19 02:46:30;;;;;;;5.70;2.47;;;5.50;99.90;;;;;;6277721;22;20023;-86
2022/04/19 02:48:57;;;;;;;5.50;1.92;;;5.80;99.90;;;;;;6278248;22;20016;-86
2022/04/19 02:51:24;;;;;;;3.95;2.10;;;5.50;99.90;;;;;;6250813;22;20026;-85
2022/04/19 02:53:49;;;;;;;6.50;2.95;;;5.50;99.90;;;;;;6278309;22;20016;-84
2022/04/19 02:56:16;;;;;;;5.10;2.30;;;5.30;99.90;;;;;;6278021;22;20438;-86
2022/04/19 02:58:44;;;;;;;5.82;2.63;;;5.40;99.90;;;;;;6279542;22;20081;-85
2022/04/19 03:01:10;;;;;;;3.83;1.92;;;5.40;99.90;;;;;;6280374;22;20023;-84
2022/04/19 03:03:36;;;;;;;4.05;2.22;;;5.30;99.90;;;;;;6280172;22;20023;-85
2022/04/19 03:06:02;;;;;;;5.68;2.47;;;6.30;99.90;;;;;;6278294;22;20015;-85
2022/04/19 03:08:28;;;;;;;4.43;2.38;;;5.30;99.90;;;;;;6277212;22;20438;-84
2022/04/19 03:10:55;;;;;;;5.28;2.03;;;5.30;99.90;;;;;;6277525;22;20055;-85
2022/04/19 03:13:21;;;;;;;4.20;2.20;;;5.30;99.90;;;;;;6277537;22;20346;-85
2022/04/19 03:15:47;;;;;;;6.15;2.50;;;6.00;99.90;;;;;;6277670;22;20024;-85
2022/04/19 03:18:14;;;;;;;3.40;2.15;;;5.90;99.90;;;;;;6276836;22;20381;-85
2022/04/19 03:20:43;;;;;;;4.90;2.42;;;6.20;99.90;;;;;;6276788;22;20024;-84
2022/04/19 03:28:37;;;;;;;3.67;1.77;;;5.40;99.90;;;;;;6277121;22;20024;-83
2022/04/19 03:31:03;;;;;;;6.13;2.92;;;5.40;99.90;;;;;;6276875;22;20350;-84
2022/04/19 03:33:28;;;;;;;6.25;3.15;;;5.80;99.90;;;;;;6276946;22;20327;-85
2022/04/19 03:35:56;;;;;;;4.18;2.40;;;5.50;99.90;;;;;;6249331;22;20020;-86
2022/04/19 03:38:22;;;;;;;7.07;2.60;;;5.70;99.90;;;;;;6249902;22;20025;-85
2022/04/19 03:40:48;;;;;;;4.95;2.55;;;5.40;99.90;;;;;;6277269;22;20057;-85
2022/04/19 03:43:14;;;;;;;4.63;2.58;;;5.40;99.90;;;;;;6277392;22;20457;-83
2022/04/19 03:45:40;;;;;;;4.28;2.25;;;5.30;99.90;;;;;;6249415;22;20024;-84
2022/04/19 03:48:06;;;;;;;4.72;2.60;;;5.90;99.90;;;;;;6276676;22;20094;-84
2022/04/19 03:50:32;;;;;;;6.57;2.47;;;5.30;99.90;;;;;;6249359;22;20030;-83
2022/04/19 03:52:58;;;;;;;5.10;2.50;;;5.40;99.90;;;;;;6276939;22;20042;-84
2022/04/19 03:55:24;;;;;;;5.50;2.20;;;5.40;99.90;;;;;;6276280;22;20426;-85
2022/04/19 03:57:50;;;;;;;5.60;2.28;;;5.40;99.90;;;;;;6276558;22;20023;-83
2022/04/19 04:00:16;;;;;;;4.63;2.30;;;5.40;99.90;;;;;;6276728;22;20405;-85
2022/04/19 04:02:41;;;;;;;5.70;2.53;;;5.30;99.90;;;;;;6249386;22;20100;-85
2022/04/19 04:05:07;;;;;;;4.05;2.28;;;5.30;99.90;;;;;;6276933;22;20470;-84
2022/04/19 04:07:37;;;;;;;5.78;2.58;;;5.30;99.90;;;;;;6248860;22;20346;-85
2022/04/19 04:10:03;;;;;;;4.07;2.25;;;5.30;99.90;;;;;;6248879;22;20335;-85
2022/04/19 04:12:29;;;;;;;4.18;2.35;;;5.20;99.90;;;;;;6276408;22;20091;-84
2022/04/19 04:14:54;;;;;;;5.85;2.70;;;5.20;99.90;;;;;;6276670;22;20055;-85
2022/04/19 04:17:20;;;;;;;6.25;3.17;;;5.20;99.90;;;;;;6276494;22;20054;-84
2022/04/19 04:19:46;;;;;;;5.40;2.70;;;5.30;99.90;;;;;;6276181;22;20061;-84
2022/04/19 04:22:12;;;;;;;5.78;2.50;;;5.10;99.90;;;;;;6276300;22;20047;-84
2022/04/19 04:24:37;;;;;;;4.38;2.08;;;5.30;99.90;;;;;;6249141;22;20078;-85
2022/04/19 04:27:03;;;;;;;5.28;2.92;;;5.70;99.90;;;;;;6276307;22;20442;-85
2022/04/19 04:29:30;;;;;;;6.28;2.70;;;5.00;99.90;;;;;;6276013;22;20458;-84
2022/04/19 04:31:55;;;;;;;5.13;2.70;;;5.00;99.90;;;;;;6276753;22;20020;-85
2022/04/19 04:34:21;;;;;;;6.05;2.35;;;4.90;99.90;;;;;;6276862;22;20389;-84
2022/04/19 04:36:47;;;;;;;7.10;2.45;;;4.90;99.90;;;;;;6224218;22;20115;-84
2022/04/19 04:39:14;;;;;;;3.88;2.13;;;5.90;99.90;;;;;;6249361;22;20042;-84
2022/04/19 04:41:40;;;;;;;7.25;2.97;;;4.90;99.90;;;;;;6249526;22;20396;-84
2022/04/19 04:44:05;;;;;;;7.05;2.95;;;5.20;99.90;;;;;;6279843;22;20047;-86
2022/04/19 04:49:39;;;;;;;4.53;2.22;;;4.90;99.90;;;;;;6155405;23;20037;-86
2022/04/19 04:52:10;;;;;;;6.13;2.80;;;4.90;99.90;;;;;;6154030;23;20421;-86
2022/04/19 04:54:40;;;;;;;4.25;2.30;;;3.50;99.90;;;;;;6153082;23;20057;-86
2022/04/19 04:57:06;;;;;;;6.32;2.63;;;5.30;99.90;;;;;;6128031;23;20033;-85
2022/04/19 04:59:34;;;;;;;4.05;2.22;;;5.30;99.90;;;;;;6152647;23;20017;-85
2022/04/19 05:02:00;;;;;;;4.90;2.42;;;4.90;99.90;;;;;;6103052;23;20049;-85
2022/04/19 05:04:26;;;;;;;5.57;2.55;;;5.10;99.90;;;;;;6152461;23;20036;-85
2022/04/19 05:06:52;;;;;;;5.20;2.38;;;4.00;99.90;;;;;;6128220;23;20025;-85
2022/04/19 05:09:18;;;;;;;6.30;2.40;;;5.90;99.90;;;;;;6153145;23;20022;-86
2022/04/19 05:11:47;;;;;;;4.60;2.65;;;4.90;99.90;;;;;;6152687;23;20387;-85
2022/04/19 05:14:15;;;;;;;4.72;2.38;;;5.80;99.90;;;;;;6152900;23;20017;-85
2022/04/19 05:16:43;;;;;;;6.03;2.50;;;4.30;99.90;;;;;;6152503;23;20025;-85
2022/04/19 05:19:09;;;;;;;5.05;2.50;;;4.50;99.90;;;;;;6127866;23;20396;-86
2022/04/19 05:21:38;;;;;;;5.85;2.70;;;5.00;99.90;;;;;;6127927;23;20029;-85
2022/04/19 05:24:05;;;;;;;6.68;2.72;;;5.60;99.90;;;;;;6152809;23;20117;-85
2022/04/19 05:26:31;;;;;;;5.10;2.20;;;5.00;99.90;;;;;;6232146;22;20023;-84
2022/04/19 05:28:56;;;;;;;4.78;1.85;;;5.40;99.90;;;;;;6276059;22;20093;-86
2022/04/19 05:31:22;;;;;;;5.53;1.80;;;5.10;99.90;;;;;;6248484;22;20024;-85
2022/04/19 05:33:48;;;;;;;5.10;2.00;;;6.10;99.90;;;;;;6275963;22;20016;-86
2022/04/19 05:36:14;;;;;;;6.13;2.53;;;5.20;99.90;;;;;;6276223;22;20343;-85
2022/04/19 05:38:39;;;;;;;5.65;2.85;;;5.90;99.90;;;;;;6276393;22;20347;-85
2022/04/19 05:41:05;;;;;;;3.85;1.90;;;5.80;99.90;;;;;;6277241;22;20027;-84
2022/04/19 05:43:31;;;;;;;4.50;2.10;;;6.30;99.90;;;;;;6278018;22;20030;-85
2022/04/19 05:45:59;;;;;;;4.50;1.70;;;6.50;99.90;;;;;;6277936;22;20015;-85
2022/04/19 05:48:25;;;;;;;4.72;1.83;;;5.00;99.90;;;;;;6278467;22;20035;-85
2022/04/19 05:50:52;;;;;;;5.88;1.92;;;5.70;99.90;;;;;;6277731;22;20023;-85
2022/04/19 05:53:19;;;;;;;5.15;2.30;;;6.80;99.90;;;;;;6250557;22;20022;-86
2022/04/19 05:55:44;;;;;;;5.80;2.00;;;6.00;99.90;;;;;;6250776;22;20113;-86
2022/04/19 05:58:10;;;;;;;5.20;2.17;;;6.10;99.90;;;;;;6277986;22;20023;-84
2022/04/19 06:00:36;;;;;;;5.43;2.05;;;7.00;99.90;;;;;;6277584;22;20052;-84
2022/04/19 06:05:47;;;;;;;5.47;2.67;;;6.50;99.90;;;;;;6250378;22;20022;-83
2022/04/19 06:08:12;;;;;;;5.03;2.30;;;6.60;99.90;;;;;;6277764;22;20020;-85
2022/04/19 06:10:38;;;;;;;6.00;2.85;;;7.80;99.90;;;;;;6278254;22;20019;-87
2022/04/19 06:13:04;;;;;;;8.93;3.53;;;7.10;99.90;;;;;;6277900;22;20103;-83
2022/04/19 06:15:31;;;;;;;8.75;3.90;;;7.20;99.90;;;;;;6225044;22;20050;-83
2022/04/19 06:17:57;;;;;;;5.05;2.28;;;7.30;99.90;;;;;;6277785;22;20019;-83
2022/04/19 06:20:22;;;;;;;6.65;2.90;;;7.80;99.90;;;;;;6277380;22;20012;-83
2022/04/19 06:22:48;;;;;;;4.50;2.25;;;7.80;99.90;;;;;;6277703;22;20024;-83
2022/04/19 06:25:14;;;;;;;5.15;2.05;;;7.90;99.90;;;;;;6277667;22;20020;-82
2022/04/19 06:27:41;;;;;;;3.85;1.60;;;8.00;99.90;;;;;;6277320;22;20059;-83
2022/04/19 06:30:07;;;;;;;5.07;1.98;;;8.20;99.90;;;;;;6277573;22;20031;-82
2022/04/19 06:32:33;;;;;;;4.97;2.30;;;8.40;99.90;;;;;;6277702;22;20015;-82
2022/04/19 06:34:58;;;;;;;5.50;2.40;;;8.60;99.90;;;;;;6277703;22;20446;-83
2022/04/19 06:37:25;;;;;;;3.33;1.55;;;8.70;99.90;;;;;;6277470;22;20020;-82
2022/04/19 06:39:50;;;;;;;5.40;2.08;;;9.40;99.90;;;;;;6250715;22;20026;-83
2022/04/19 06:42:16;;;;;;;6.50;2.55;;;9.90;99.90;;;;;;6277855;22;20019;-82
2022/04/19 06:44:42;;;;;;;4.93;2.13;;;9.40;99.90;;;;;;6250325;22;20051;-83
2022/04/19 06:47:08;;;;;;;4.13;2.05;;;9.40;99.90;;;;;;6250115;22;20022;-83
2022/04/19 06:49:34;;;;;;;5.55;2.28;;;9.50;99.90;;;;;;6277956;22;20058;-83
2022/04/19 06:52:00;;;;;;;6.18;2.70;;;9.50;99.90;;;;;;6249933;22;20464;-82
2022/04/19 06:54:26;;;;;;;4.88;2.65;;;9.90;99.90;;;;;;6277617;22;20081;-83
2022/04/19 06:56:52;;;;;;;5.38;2.30;;;10.00;99.90;;;;;;6278477;22;20381;-82
2022/04/19 06:59:17;;;;;;;5.60;2.38;;;10.20;99.90;;;;;;6278468;22;20016;-81
2022/04/19 07:01:43;;;;;;;5.55;2.70;;;11.10;99.90;;;;;;6279106;22;20016;-83
2022/04/19 07:04:09;;;;;;;8.43;4.03;;;10.50;99.90;;;;;;6277353;22;20019;-83
2022/04/19 07:06:36;;;;;;;5.53;2.45;;;10.70;99.90;;;;;;6277530;22;20020;-82
2022/04/19 07:09:02;;;;;;;6.00;3.25;;;10.80;99.90;;;;;;6277228;22;20051;-83
2022/04/19 07:11:29;;;;;;;4.75;3.03;;;11.00;99.90;;;;;;6277691;22;20065;-82
2022/04/19 07:13:55;;;;;;;4.63;2.25;;;11.10;99.90;;;;;;6252980;22;20117;-84
2022/04/19 07:16:20;;;;;;;4.30;2.10;;;11.20;99.90;;;;;;6277932;22;20380;-82
2022/04/19 07:18:46;;;;;;;5.13;2.50;;;11.30;99.90;;;;;;6276822;22;20030;-82
2022/04/19 07:26:41;;;;;;;4.28;1.95;;;11.60;99.90;;;;;;6274050;22;20103;-83
2022/04/19 07:29:08;;;;;;;5.78;2.08;;;11.80;99.90;;;;;;6275216;22;20059;-83
2022/04/19 07:31:34;;;;;;;6.90;2.10;;;11.90;99.90;;;;;;6277103;22;20022;-83
2022/04/19 07:34:00;;;;;;;3.67;2.38;;;12.30;99.90;;;;;;6224662;22;20087;-83
2022/04/19 07:36:26;;;;;;;4.50;2.25;;;12.20;99.90;;;;;;6276162;22;20022;-83
2022/04/19 07:38:52;;;;;;;5.63;1.45;;;12.30;99.90;;;;;;6249618;22;20047;-83
2022/04/19 07:41:18;;;;;;;5.25;2.33;;;12.50;99.90;;;;;;6277171;22;20020;-83
2022/04/19 07:43:47;;;;;;;4.05;1.80;;;12.60;99.90;;;;;;6276139;22;20011;-83
2022/04/19 07:46:16;;;;;;;3.35;1.60;;;13.20;99.90;;;;;;6276677;22;20058;-83
2022/04/19 07:48:47;;;;;;;3.67;1.75;;;12.90;99.90;;;;;;6276878;22;20373;-83
2022/04/19 07:51:14;;;;;;;3.17;1.42;;;13.00;99.90;;;;;;6249013;22;20023;-83
2022/04/19 07:53:40;;;;;;;3.38;1.80;;;13.10;99.90;;;;;;6249630;22;20318;-83
2022/04/19 07:56:06;;;;;;;2.72;1.60;;;13.20;99.90;;;;;;6276845;22;20019;-83
2022/04/19 07:58:32;;;;;;;3.33;1.25;;;13.30;99.90;;;;;;6249991;22;20022;-83
2022/04/19 08:00:59;;;;;;;4.55;1.92;;;13.40;99.90;;;;;;6250249;22;20024;-83
2022/04/19 08:03:25;;;;;;;4.07;1.42;;;13.50;99.90;;;;;;6250545;22;20058;-83
2022/04/19 08:05:51;;;;;;;2.00;1.15;;;13.60;99.90;;;;;;6276441;22;20023;-83
2022/04/19 08:08:18;;;;;;;2.42;1.05;;;13.60;99.90;;;;;;6276830;22;20346;-83
2022/04/19 08:10:45;;;;;;;1.77;0.80;;;13.80;99.90;;;;;;6249807;22;20019;-83
2022/04/19 08:13:10;;;;;;;2.00;0.73;;;13.90;99.90;;;;;;6276216;22;20150;-83
2022/04/19 08:15:36;;;;;;;3.15;1.15;;;14.10;99.90;;;;;;6276636;22;20051;-82
2022/04/19 08:18:02;;;;;;;1.70;0.90;;;14.20;99.90;;;;;;6276274;22;20094;-83
2022/04/19 08:20:28;;;;;;;1.55;0.77;;;14.20;99.70;;;;;;6275392;22;20016;-82
2022/04/19 08:22:53;;;;;;;2.65;1.10;;;14.30;99.90;;;;;;6248712;22;20047;-83
2022/04/19 08:25:19;;;;;;;1.17;0.80;;;14.40;99.10;;;;;;6276753;22;20015;-83
2022/04/19 08:27:46;;;;;;;2.15;0.80;;;14.60;99.90;;;;;;6276105;22;20031;-83
2022/04/19 08:30:16;;;;;;;1.27;0.68;;;14.70;97.80;;;;;;6276227;22;20023;-83
2022/04/19 08:32:44;;;;;;;1.23;0.60;;;14.80;97.80;;;;;;6276593;22;20094;-84
2022/04/19 08:35:10;;;;;;;3.03;0.80;;;15.20;98.80;;;;;;6276064;22;20505;-84
2022/04/19 08:37:36;;;;;;;1.00;0.60;;;15.00;96.60;;;;;;6276324;22;20019;-85
2022/04/19 08:40:05;;;;;;;1.05;0.45;;;15.10;97.80;;;;;;6248675;22;20466;-84
2022/04/19 08:42:32;;;;;;;1.50;0.60;;;15.30;97.90;;;;;;6276442;22;20045;-84
2022/04/19 08:45:03;;;;;;;1.63;0.70;;;15.50;97.80;;;;;;6274321;22;20024;-84
2022/04/19 08:47:34;;;;;;;0.95;0.60;;;15.50;97.00;;;;;;6276475;22;20016;-84
2022/04/19 08:50:05;;;;;;;1.88;0.63;;;15.50;95.60;;;;;;6248526;22;20019;-84
2022/04/19 08:52:32;;;;;;;2.25;0.68;;;15.70;96.00;;;;;;6249179;22;20389;-84
2022/04/19 08:57:43;;;;;;;1.85;1.00;;;15.80;95.60;;;;;;6276318;22;20020;-86
2022/04/19 09:00:09;;;;;;;1.70;1.02;;;15.80;93.60;;;;;;6249229;22;20085;-85
2022/04/19 09:02:37;;;;;;;1.63;0.80;;;15.90;94.60;;;;;;6249042;22;20024;-85
2022/04/19 09:05:19;;;;;;;3.35;0.60;;;15.90;94.50;;;;;;6276322;22;20027;-85
2022/04/19 09:07:47;;;;;;;0.95;0.50;;;15.90;94.30;;;;;;6276286;22;20359;-85
2022/04/19 09:10:15;;;;;;;1.55;0.60;;;16.00;95.40;;;;;;6276475;22;20120;-85
2022/04/19 09:13:00;;;;;;;1.30;0.88;;;16.20;95.50;;;;;;6276146;22;20023;-87
2022/04/19 09:15:37;;;;;;;1.45;0.80;;;16.30;95.10;;;;;;6248976;22;20019;-88
2022/04/19 09:18:04;;;;;;;3.45;1.15;;;16.40;94.70;;;;;;6276395;22;20047;-85
2022/04/19 09:20:31;;;;;;;1.67;0.90;;;16.60;95.60;;;;;;6275848;22;20022;-86
2022/04/19 09:23:15;;;;;;;3.25;1.00;;;16.70;96.20;;;;;;6248699;22;20334;-85
2022/04/19 09:25:42;;;;;;;2.13;1.00;;;16.80;94.40;;;;;;6249382;22;20015;-90
2022/04/19 09:28:19;;;;;;;1.98;0.80;;;16.80;94.70;;;;;;6275572;22;20091;-84
2022/04/19 09:30:47;;;;;;;2.08;0.90;;;17.00;95.10;;;;;;6275703;22;20490;-85
2022/04/19 09:33:18;;;;;;;3.45;1.30;;;17.20;94.20;;;;;;6248797;22;20065;-86
2022/04/19 09:35:50;;;;;;;1.92;1.00;;;17.20;92.90;;;;;;6275650;22;20055;-85
2022/04/19 09:38:17;;;;;;;2.10;0.98;;;17.10;94.50;;;;;;6276356;22;20055;-85
2022/04/19 09:40:48;;;;;;;2.53;0.93;;;17.00;94.20;;;;;;6276343;22;20020;-85
2022/04/19 09:43:23;;;;;;;2.30;1.30;;;17.00;93.60;;;;;;6275975;22;20016;-87
2022/04/19 09:46:03;;;;;;;2.33;1.00;;;17.10;92.90;;;;;;6249037;22;20024;-85
2022/04/19 09:48:42;;;;;;;2.72;1.00;;;17.20;92.50;;;;;;6276071;22;20022;-86
2022/04/19 09:51:12;;;;;;;1.45;0.77;;;17.10;92.50;;;;;;6275709;22;20518;-85
2022/04/19 09:53:48;;;;;;;2.30;0.82;;;17.20;92.40;;;;;;6276072;22;20326;-85
2022/04/19 09:56:19;;;;;;;1.70;1.05;;;17.20;91.20;;;;;;6248734;22;20027;-85
2022/04/19 09:58:47;;;;;;;1.40;0.70;;;17.30;90.80;;;;;;6276319;22;20016;-85
2022/04/19 10:09:33;;;;;;;1.73;0.90;;;17.30;90.30;;;;;;6276607;22;20490;-85
2022/04/19 10:12:00;;;;;;;2.15;0.90;;;17.50;90.20;;;;;;6248890;22;20030;-84
2022/04/19 10:14:29;;;;;;;1.35;0.70;;;17.50;91.10;;;;;;6276200;22;20126;-85
2022/04/19 10:16:57;;;;;;;4.25;1.02;;;17.70;90.70;;;;;;6276226;22;20413;-85
2022/04/19 10:19:23;;;;;;;1.50;0.93;;;17.60;90.30;;;;;;6276040;22;20023;-86
2022/04/19 10:21:51;;;;;;;2.78;0.90;;;17.50;89.10;;;;;;6276278;22;20018;-85
2022/04/19 10:24:17;;;;;;;2.15;0.73;;;17.50;88.70;;;;;;6276065;22;20065;-84
2022/04/19 10:26:46;;;;;;;2.03;1.15;;;17.50;90.50;;;;;;6276972;22;20015;-85
2022/04/19 10:29:30;;;;;;;2.00;0.80;;;17.50;88.90;;;;;;6277887;22;20015;-86
2022/04/19 10:32:01;;;;;;;0.98;0.70;;;17.50;89.70;;;;;;6250506;22;20016;-85
2022/04/19 10:34:30;;;;;;;1.30;0.80;;;17.60;88.60;;;;;;6250775;22;20103;-87
2022/04/19 10:37:04;;;;;;;1.75;0.88;;;17.50;86.40;;;;;;6278677;22;20114;-85
2022/04/19 10:39:33;;;;;;;2.17;1.10;;;17.50;86.90;;;;;;6277960;22;20023;-86
2022/04/19 10:42:00;;;;;;;1.73;1.00;;;17.60;88.90;;;;;;6278438;22;20283;-86
2022/04/19 10:44:46;;;;;;;0.93;0.70;;;17.70;90.10;;;;;;6277742;22;20024;-86
2022/04/19 10:47:20;;;;;;;1.50;1.00;;;17.70;89.30;;;;;;6278558;22;20043;-87
2022/04/19 10:50:02;;;;;;;8.55;1.15;;;17.80;90.40;;;;;;6278575;22;20024;-88
2022/04/19 10:52:37;;;;;;;1.88;0.93;;;18.00;89.40;;;;;;6252801;22;20023;-89
2022/04/19 10:55:21;;;;;;;2.08;1.05;;;18.00;89.10;;;;;;6280025;22;20026;-91
2022/04/19 10:58:18;;;;;;;2.97;1.30;;;18.20;87.20;;;;;;6280708;22;20315;-85
2022/04/19 11:00:58;;;;;;;2.65;0.90;;;18.00;88.30;;;;;;6227408;22;20050;-85
2022/04/19 11:03:33;;;;;;;2.55;1.10;;;18.10;87.70;;;;;;6251069;22;20041;-86
2022/04/19 11:06:01;;;;;;;4.40;1.20;;;18.10;86.40;;;;;;6250140;22;20055;-85
2022/04/19 11:08:29;;;;;;;1.40;0.95;;;18.00;84.70;;;;;;6277201;22;20008;-85
2022/04/19 11:10:55;;;;;;;1.60;0.93;;;18.20;86.90;;;;;;6249878;22;20027;-85
2022/04/19 11:13:22;;;;;;;1.77;0.90;;;18.10;84.40;;;;;;6250453;22;20111;-85
2022/04/19 11:16:09;;;;;;;1.92;1.25;;;18.10;86.30;;;;;;6249652;22;20350;-84
2022/04/19 11:18:54;;;;;;;1.83;0.90;;;18.30;84.50;;;;;;6249814;22;20028;-87
2022/04/19 11:21:52;;;;;;;3.30;1.33;;;18.30;82.20;;;;;;6250261;22;20019;-85
2022/04/19 11:24:55;;;;;;;2.30;1.05;;;18.30;84.90;;;;;;6250400;22;20016;-87
2022/04/19 11:27:21;;;;;;;2.13;0.88;;;18.60;82.70;;;;;;6248827;22;20442;-89
2022/04/19 11:29:49;;;;;;;1.42;0.80;;;18.50;83.40;;;;;;6276803;22;20023;-88
2022/04/19 11:46:58;;;;;;;1.70;0.80;;;18.90;81.60;;;;;;6276878;22;20010;-86
2022/04/19 11:49:35;;;;;;;1.95;0.75;;;18.90;80.90;;;;;;6249728;22;20093;-86
2022/04/19 11:52:09;;;;;;;2.03;0.80;;;19.20;81.80;;;;;;6276936;22;20346;-86
2022/04/19 11:54:39;;;;;;;2.47;0.82;;;19.10;79.90;;;;;;6249525;22;20088;-86
2022/04/19 11:57:10;;;;;;;1.80;0.98;;;19.20;80.60;;;;;;6224196;22;20027;-87
2022/04/19 11:59:55;;;;;;;1.80;0.90;;;19.10;78.60;;;;;;6249465;22;20016;-85
2022/04/19 12:02:23;;;;;;;1.52;1.00;;;19.10;78.50;;;;;;6249164;22;20059;-85
2022/04/19 12:04:54;;;;;;;2.47;1.10;;;19.30;77.20;;;;;;6248838;22;20327;-85
2022/04/19 12:07:21;;;;;;;2.28;0.70;;;19.00;78.20;;;;;;6275179;22;20023;-85
2022/04/19 12:09:50;;;;;;;2.55;0.50;;;19.00;80.70;;;;;;6276554;22;20466;-86
2022/04/19 12:12:15;;;;;;;0.90;0.65;;;18.90;76.20;;;;;;6249402;22;20022;-85
2022/04/19 12:14:41;;;;;;;1.00;0.70;;;18.90;78.60;;;;;;6249235;22;20058;-86
2022/04/19 12:17:08;;;;;;;1.70;0.73;;;19.10;77.80;;;;;;6249553;22;20024;-86
2022/04/19 12:19:43;;;;;;;1.55;0.80;;;19.10;76.20;;;;;;6276595;22;20022;-86
2022/04/19 12:22:21;;;;;;;1.15;0.70;;;19.10;76.50;;;;;;6249277;22;20420;-86
2022/04/19 12:24:55;;;;;;;0.60;0.40;;;19.30;77.60;;;;;;6276398;22;20093;-86
2022/04/19 12:27:29;;;;;;;1.38;0.60;;;19.20;77.90;;;;;;6249202;22;20074;-85
2022/04/19 12:30:12;;;;;;;1.47;0.70;;;19.40;77.10;;;;;;6276407;22;20107;-85
2022/04/19 12:32:58;;;;;;;0.65;0.45;;;19.50;74.60;;;;;;6249181;22;20055;-86
2022/04/19 12:35:37;;;;;;;1.50;0.80;;;19.70;76.40;;;;;;6249243;22;20078;-85
2022/04/19 12:38:13;;;;;;;1.02;0.73;;;19.80;73.10;;;;;;6249299;22;20027;-86
2022/04/19 12:40:40;;;;;;;1.20;0.70;;;19.60;74.20;;;;;;6249159;22;20065;-86
2022/04/19 12:43:06;;;;;;;1.23;0.65;;;19.60;74.80;;;;;;6276323;22;20047;-86
2022/04/19 12:45:35;;;;;;;2.08;0.60;;;19.60;77.50;;;;;;6276343;22;20432;-85
2022/04/19 12:48:02;;;;;;;1.67;0.80;;;19.80;76.50;;;;;;6276225;22;20016;-85
2022/04/19 12:50:29;;;;;;;1.42;0.95;;;20.00;76.20;;;;;;6248369;22;20024;-86
2022/04/19 12:52:55;;;;;;;1.52;0.63;;;20.20;73.30;;;;;;6249698;22;20020;-85
2022/04/19 12:55:38;;;;;;;1.38;0.80;;;19.90;75.60;;;;;;6224309;22;20085;-87
2022/04/19 12:58:11;;;;;;;1.08;0.52;;;19.90;75.30;;;;;;6249082;22;20027;-85
2022/04/19 13:00:37;;;;;;;1.25;0.80;;;19.90;76.20;;;;;;6276701;22;20101;-86
2022/04/19 13:03:06;;;;;;;1.60;0.70;;;19.90;74.60;;;;;;6276146;22;20042;-84
2022/04/19 13:14:08;;;;;;;2.55;1.15;;;19.90;74.90;;;;;;6276566;22;20354;-86
2022/04/19 13:16:34;;;;;;;1.20;0.70;;;19.90;73.70;;;;;;6276901;22;20016;-86
2022/04/19 13:19:00;;;;;;;1.92;0.75;;;19.80;73.00;;;;;;6276945;22;20027;-86
2022/04/19 13:21:26;;;;;;;2.13;0.80;;;19.90;72.30;;;;;;6276794;22;20442;-86
2022/04/19 13:23:55;;;;;;;2.63;1.08;;;19.80;73.50;;;;;;6249242;22;20024;-86
2022/04/19 13:26:21;;;;;;;2.75;0.90;;;20.00;71.20;;;;;;6276618;22;20015;-86
2022/04/19 13:28:47;;;;;;;2.38;1.23;;;20.00;73.50;;;;;;6277542;22;20026;-84
2022/04/19 13:31:13;;;;;;;2.78;1.08;;;19.80;73.30;;;;;;6248963;22;20450;-83
2022/04/19 13:33:47;;;;;;;2.17;0.90;;;19.90;74.60;;;;;;6249249;22;20104;-89
2022/04/19 13:36:13;;;;;;;1.60;0.75;;;20.10;74.60;;;;;;6276170;22;20016;-88
2022/04/19 13:38:39;;;;;;;5.38;1.67;;;20.20;75.90;;;;;;6275875;22;20019;-88
2022/04/19 13:41:04;;;;;;;1.80;0.80;;;20.20;71.40;;;;;;6248265;22;20028;-87
2022/04/19 13:43:30;;;;;;;1.88;1.00;;;20.30;70.90;;;;;;6276037;22;20350;-86
2022/04/19 13:45:56;;;;;;;2.50;1.02;;;20.20;72.30;;;;;;6276174;22;20058;-87
2022/04/19 13:48:21;;;;;;;2.22;0.95;;;20.10;70.90;;;;;;6276248;22;20102;-87
2022/04/19 13:50:47;;;;;;;6.70;1.05;;;20.20;68.90;;;;;;6275759;22;20024;-87
2022/04/19 13:53:13;;;;;;;2.75;1.50;;;20.00;68.50;;;;;;6276193;22;20019;-88